Time;durP1;ratioP1;P1;durP2;ratioP2;P2;SDS_P1;SDS_P2;PMS_P1;PMS_P2;Temp;Humidity;BMP_temperature;BMP_pressure;BME280_temperature;BME280_humidity;BME280_pressure;Samples;Min_cycle;Max_cycle;Signal;HPM_P1;HPM_P2
2022/10/18 00:00:47;;;;;;;16.38;10.35;;;12.90;99.90;;;;;;5090283;28;20378;-67
2022/10/18 00:03:12;;;;;;;13.50;9.40;;;12.90;99.90;;;;;;5090324;28;20047;-68
2022/10/18 00:05:38;;;;;;;10.90;9.80;;;12.90;99.90;;;;;;5090186;28;20044;-68
2022/10/18 00:08:04;;;;;;;14.65;9.45;;;12.90;99.90;;;;;;5090210;28;20132;-68
2022/10/18 00:10:30;;;;;;;20.75;9.45;;;12.80;99.90;;;;;;5089760;28;20067;-67
2022/10/18 00:12:55;;;;;;;9.60;8.60;;;12.80;99.90;;;;;;5090239;28;20087;-68
2022/10/18 00:15:21;;;;;;;18.92;8.20;;;12.80;99.90;;;;;;5090136;28;20050;-68
2022/10/18 00:17:47;;;;;;;9.30;8.02;;;12.80;99.90;;;;;;5089660;28;20478;-68
2022/10/18 00:20:12;;;;;;;13.07;8.23;;;12.80;99.90;;;;;;5089920;28;20043;-68
2022/10/18 00:22:39;;;;;;;9.68;8.25;;;12.80;99.90;;;;;;5089650;28;20339;-68
2022/10/18 00:25:06;;;;;;;13.40;8.02;;;12.80;99.90;;;;;;5089833;28;20123;-67
2022/10/18 00:27:32;;;;;;;12.57;8.65;;;12.70;99.90;;;;;;5089571;28;20394;-68
2022/10/18 00:29:57;;;;;;;13.88;7.90;;;12.70;99.90;;;;;;5089995;28;20040;-68
2022/10/18 00:32:24;;;;;;;8.50;7.57;;;12.70;99.90;;;;;;5073197;28;20032;-68
2022/10/18 00:34:50;;;;;;;28.83;8.77;;;12.70;99.90;;;;;;5089510;28;20090;-68
2022/10/18 00:37:16;;;;;;;10.38;7.28;;;12.70;99.90;;;;;;5072312;28;20399;-67
2022/10/18 00:39:42;;;;;;;13.35;7.38;;;12.70;99.90;;;;;;5089509;28;20044;-67
2022/10/18 00:42:14;;;;;;;16.17;7.95;;;12.70;99.90;;;;;;5089318;28;20068;-67
2022/10/18 00:44:40;;;;;;;13.25;7.50;;;12.70;99.90;;;;;;5089302;28;20040;-68
2022/10/18 00:47:08;;;;;;;19.95;7.68;;;12.70;99.90;;;;;;5072489;28;20043;-67
2022/10/18 00:49:39;;;;;;;34.88;7.80;;;12.70;99.90;;;;;;5089725;28;20040;-68
2022/10/18 00:52:13;;;;;;;17.55;7.45;;;12.60;99.90;;;;;;5089605;28;20052;-68
2022/10/18 00:54:42;;;;;;;14.68;7.07;;;12.60;99.90;;;;;;5089613;28;20036;-67
2022/10/18 00:57:09;;;;;;;8.55;7.65;;;12.60;99.90;;;;;;5089216;28;20062;-68
2022/10/18 00:59:35;;;;;;;24.80;9.02;;;12.60;99.90;;;;;;5072714;28;20494;-68
2022/10/18 01:02:02;;;;;;;14.38;8.30;;;12.60;99.90;;;;;;5089177;28;20113;-68
2022/10/18 01:04:27;;;;;;;17.90;8.80;;;12.60;99.90;;;;;;5089845;28;20131;-68
2022/10/18 01:07:21;;;;;;;12.30;7.90;;;12.60;99.90;;;;;;5088914;28;20162;-67
2022/10/18 01:10:01;;;;;;;9.82;7.55;;;12.60;99.90;;;;;;5089245;28;20081;-68
2022/10/18 01:12:46;;;;;;;10.40;7.43;;;12.60;99.90;;;;;;5072575;28;20044;-67
2022/10/18 01:15:25;;;;;;;14.27;8.93;;;12.60;99.90;;;;;;5089100;28;20039;-68
2022/10/18 01:18:01;;;;;;;9.60;7.97;;;12.60;99.90;;;;;;5088913;28;20043;-68
2022/10/18 01:20:48;;;;;;;11.43;8.27;;;12.60;99.90;;;;;;5072509;28;20036;-67
2022/10/18 01:23:42;;;;;;;11.15;8.07;;;12.60;99.90;;;;;;5072254;28;20036;-68
2022/10/18 01:26:26;;;;;;;10.10;8.15;;;12.60;99.90;;;;;;5089077;28;20490;-68
2022/10/18 01:28:55;;;;;;;11.50;8.05;;;12.50;99.90;;;;;;5089344;28;20172;-67
2022/10/18 01:31:29;;;;;;;12.77;9.02;;;12.50;99.90;;;;;;5089520;28;20123;-68
2022/10/18 01:33:58;;;;;;;10.15;8.20;;;12.40;99.90;;;;;;5072049;28;20031;-67
2022/10/18 01:36:41;;;;;;;11.90;8.05;;;12.40;99.90;;;;;;5089272;28;20051;-68
2022/10/18 01:39:28;;;;;;;11.32;8.32;;;12.40;99.90;;;;;;5088983;28;20386;-68
2022/10/18 01:41:55;;;;;;;12.32;8.43;;;12.40;99.90;;;;;;5077513;28;20506;-67
2022/10/18 01:44:25;;;;;;;17.13;7.85;;;12.30;99.90;;;;;;5072017;28;20035;-67
2022/10/18 01:46:53;;;;;;;15.25;8.85;;;12.30;99.90;;;;;;5071764;28;20036;-68
2022/10/18 01:49:19;;;;;;;10.18;8.45;;;12.30;99.90;;;;;;5072003;28;20066;-67
2022/10/18 01:51:45;;;;;;;10.85;8.32;;;12.30;99.90;;;;;;5055415;28;20506;-67
2022/10/18 01:54:16;;;;;;;10.57;8.02;;;12.30;99.90;;;;;;5072939;28;20071;-68
2022/10/18 01:56:55;;;;;;;8.77;7.85;;;12.30;99.90;;;;;;5075723;28;20048;-67
2022/10/18 01:59:36;;;;;;;18.95;8.95;;;12.30;99.90;;;;;;5075456;28;20052;-68
2022/10/18 02:02:39;;;;;;;9.00;8.10;;;12.30;99.90;;;;;;5075552;28;20035;-68
2022/10/18 02:05:40;;;;;;;8.35;7.55;;;12.30;99.90;;;;;;5075333;28;20044;-68
2022/10/18 02:08:27;;;;;;;12.45;7.38;;;12.20;99.90;;;;;;5075270;28;20128;-67
2022/10/18 02:10:55;;;;;;;27.17;7.65;;;12.20;99.90;;;;;;5075454;28;20059;-68
2022/10/18 02:13:24;;;;;;;23.00;7.30;;;12.20;99.90;;;;;;5075318;28;20044;-68
2022/10/18 02:15:55;;;;;;;18.17;6.60;;;12.10;99.90;;;;;;5075469;28;20044;-67
2022/10/18 02:18:27;;;;;;;22.60;6.82;;;12.10;99.90;;;;;;5058647;28;20032;-67
2022/10/18 02:20:54;;;;;;;19.33;5.88;;;12.00;99.90;;;;;;5075465;28;20126;-68
2022/10/18 02:23:24;;;;;;;29.33;6.60;;;12.00;99.90;;;;;;5074970;28;20126;-68
2022/10/18 02:25:50;;;;;;;26.25;6.45;;;12.00;99.90;;;;;;5075453;28;20040;-68
2022/10/18 02:28:16;;;;;;;51.20;6.10;;;11.90;99.90;;;;;;5074950;28;20816;-67
2022/10/18 02:31:09;;;;;;;34.25;6.43;;;12.00;99.90;;;;;;5075317;28;20068;-68
2022/10/18 02:33:52;;;;;;;;;;;11.90;99.90;;;;;;5076060;28;20381;-68
2022/10/18 02:36:33;;;;;;;14.52;5.18;;;11.90;99.90;;;;;;5074724;28;19931;-68
2022/10/18 02:39:10;;;;;;;17.80;5.38;;;11.90;99.90;;;;;;5075126;28;20083;-67
2022/10/18 02:41:36;;;;;;;20.05;5.32;;;11.90;99.90;;;;;;5074895;28;20052;-68
2022/10/18 02:44:01;;;;;;;18.92;5.05;;;11.80;99.90;;;;;;5075346;28;20177;-68
2022/10/18 02:46:27;;;;;;;17.00;5.25;;;11.80;99.90;;;;;;5074708;28;20047;-68
2022/10/18 02:48:53;;;;;;;19.40;5.15;;;11.90;99.90;;;;;;5074760;28;20042;-67
2022/10/18 02:51:18;;;;;;;12.50;5.00;;;11.90;99.90;;;;;;5058097;28;20052;-68
2022/10/18 02:53:44;;;;;;;21.52;5.57;;;11.90;99.90;;;;;;5074924;28;20044;-68
2022/10/18 02:56:09;;;;;;;23.88;6.10;;;11.90;99.90;;;;;;5074684;28;20047;-68
2022/10/18 02:58:35;;;;;;;24.92;6.30;;;11.80;99.90;;;;;;5057847;28;20457;-68
2022/10/18 03:01:01;;;;;;;15.73;5.45;;;11.90;99.90;;;;;;5074586;28;20048;-68
2022/10/18 03:03:26;;;;;;;16.58;6.60;;;11.90;99.90;;;;;;5074568;28;20114;-67
2022/10/18 03:05:52;;;;;;;25.70;6.07;;;11.90;99.90;;;;;;5073636;28;20097;-68
2022/10/18 03:08:18;;;;;;;44.60;6.35;;;11.90;99.90;;;;;;5074120;28;20040;-67
2022/10/18 03:10:44;;;;;;;13.85;5.95;;;11.90;99.90;;;;;;5074426;28;20471;-68
2022/10/18 03:13:10;;;;;;;12.38;5.78;;;11.90;99.90;;;;;;5074462;28;20125;-67
2022/10/18 03:15:35;;;;;;;17.90;5.13;;;11.90;99.90;;;;;;5074239;28;20048;-68
2022/10/18 03:18:01;;;;;;;19.25;5.40;;;11.90;99.90;;;;;;5074202;28;20105;-68
2022/10/18 03:20:27;;;;;;;13.43;5.50;;;11.90;99.90;;;;;;5074017;28;20459;-68
2022/10/18 03:22:53;;;;;;;17.52;5.70;;;11.90;99.90;;;;;;5074377;28;20379;-68
2022/10/18 03:25:18;;;;;;;11.65;5.63;;;11.90;99.90;;;;;;5074108;28;20036;-68
2022/10/18 03:27:44;;;;;;;10.43;6.15;;;11.90;99.90;;;;;;5074025;28;20047;-67
2022/10/18 03:30:13;;;;;;;37.80;7.32;;;11.90;99.90;;;;;;5057585;28;20090;-67
2022/10/18 03:32:39;;;;;;;34.58;6.70;;;11.90;99.90;;;;;;5074188;28;20036;-68
2022/10/18 03:35:06;;;;;;;48.83;7.40;;;11.80;99.90;;;;;;5074095;28;20387;-67
2022/10/18 03:37:32;;;;;;;43.17;8.40;;;11.90;99.90;;;;;;5056884;28;20123;-68
2022/10/18 03:39:58;;;;;;;48.97;8.15;;;11.90;99.90;;;;;;5073835;28;20601;-68
2022/10/18 03:42:23;;;;;;;37.30;7.50;;;11.90;99.90;;;;;;5089013;28;20059;-68
2022/10/18 03:44:49;;;;;;;21.60;7.95;;;11.90;99.90;;;;;;5090830;28;20047;-68
2022/10/18 03:47:15;;;;;;;14.80;7.22;;;11.90;99.90;;;;;;5090331;28;20047;-67
2022/10/18 03:49:40;;;;;;;36.30;7.93;;;11.80;99.90;;;;;;5090277;28;20036;-67
2022/10/18 03:52:06;;;;;;;64.07;8.45;;;11.80;99.90;;;;;;5090538;28;20040;-68
2022/10/18 03:54:32;;;;;;;43.58;8.27;;;11.90;99.90;;;;;;5090113;28;20047;-67
2022/10/18 03:56:57;;;;;;;38.60;8.07;;;11.80;99.90;;;;;;5090521;28;20115;-68
2022/10/18 03:59:23;;;;;;;12.20;7.05;;;11.80;99.90;;;;;;5090258;28;20561;-68
2022/10/18 04:01:49;;;;;;;26.98;7.75;;;11.80;99.90;;;;;;5090064;28;20067;-67
2022/10/18 04:04:14;;;;;;;24.75;7.60;;;11.80;99.90;;;;;;5090516;28;20131;-67
2022/10/18 04:06:40;;;;;;;23.33;7.35;;;11.80;99.90;;;;;;5089928;28;20112;-67
2022/10/18 04:09:06;;;;;;;78.55;10.55;;;11.80;99.90;;;;;;5090181;28;20036;-68
2022/10/18 04:11:31;;;;;;;28.85;8.43;;;11.80;99.90;;;;;;5090152;28;20072;-68
2022/10/18 04:13:57;;;;;;;38.10;8.70;;;11.70;99.90;;;;;;5090385;28;20082;-67
2022/10/18 04:16:22;;;;;;;22.42;7.85;;;11.80;99.90;;;;;;5089947;28;20084;-67
2022/10/18 04:18:48;;;;;;;20.33;8.30;;;11.70;99.90;;;;;;5090048;28;20455;-67
2022/10/18 04:21:14;;;;;;;20.17;8.20;;;11.70;99.90;;;;;;5090122;28;20076;-67
2022/10/18 04:23:40;;;;;;;18.70;7.50;;;11.70;99.90;;;;;;5090043;28;20075;-68
2022/10/18 04:26:06;;;;;;;25.58;8.50;;;11.70;99.90;;;;;;5091174;28;20036;-68
2022/10/18 04:28:33;;;;;;;21.52;7.70;;;11.70;99.90;;;;;;5089885;28;20447;-67
2022/10/18 04:30:58;;;;;;;86.70;11.02;;;11.70;99.90;;;;;;5089698;28;20036;-67
2022/10/18 04:33:24;;;;;;;40.45;9.45;;;11.70;99.90;;;;;;5089771;28;20159;-67
2022/10/18 04:35:51;;;;;;;23.30;8.77;;;11.70;99.90;;;;;;5089356;28;20032;-67
2022/10/18 04:38:17;;;;;;;31.27;8.75;;;11.70;99.90;;;;;;5072642;28;20040;-68
2022/10/18 04:40:43;;;;;;;73.30;9.98;;;11.70;99.90;;;;;;5089632;28;20060;-68
2022/10/18 04:43:08;;;;;;;44.80;9.25;;;11.70;99.90;;;;;;5089601;28;20057;-67
2022/10/18 04:45:34;;;;;;;30.85;8.93;;;11.70;99.90;;;;;;5089511;28;20044;-67
2022/10/18 04:48:00;;;;;;;43.67;9.82;;;11.70;99.90;;;;;;5089325;28;20547;-68
2022/10/18 04:50:26;;;;;;;28.25;9.50;;;11.70;99.90;;;;;;5089418;28;20032;-67
2022/10/18 04:52:52;;;;;;;18.02;8.35;;;11.70;99.90;;;;;;5090828;28;20028;-67
2022/10/18 04:55:18;;;;;;;84.50;10.20;;;11.70;99.90;;;;;;5089791;28;20376;-68
2022/10/18 04:57:44;;;;;;;35.45;9.77;;;11.70;99.90;;;;;;5089465;28;20059;-67
2022/10/18 05:00:10;;;;;;;25.67;9.25;;;11.70;99.90;;;;;;5072764;28;20477;-68
2022/10/18 05:02:36;;;;;;;35.28;9.75;;;11.70;99.90;;;;;;5089300;28;20040;-68
2022/10/18 05:05:03;;;;;;;48.30;9.60;;;11.70;99.90;;;;;;5089344;28;20054;-68
2022/10/18 05:07:28;;;;;;;51.90;10.20;;;11.70;99.90;;;;;;5089345;28;20492;-68
2022/10/18 05:09:54;;;;;;;24.10;8.93;;;11.70;99.90;;;;;;5089050;28;20034;-68
2022/10/18 05:12:21;;;;;;;72.32;10.52;;;11.70;99.90;;;;;;5089599;28;20036;-67
2022/10/18 05:14:47;;;;;;;89.30;10.88;;;11.70;99.90;;;;;;5072082;28;20083;-67
2022/10/18 05:17:13;;;;;;;135.43;13.23;;;11.70;99.90;;;;;;5089588;28;20443;-67
2022/10/18 05:19:38;;;;;;;100.78;12.55;;;11.70;99.90;;;;;;5089104;28;20040;-67
2022/10/18 05:22:04;;;;;;;134.18;13.32;;;11.70;99.90;;;;;;5088894;28;20063;-68
2022/10/18 05:24:29;;;;;;;103.40;12.23;;;11.60;99.90;;;;;;5090517;28;20036;-68
2022/10/18 05:26:55;;;;;;;52.97;11.30;;;11.60;99.90;;;;;;5088784;28;20036;-68
2022/10/18 05:29:21;;;;;;;68.32;10.70;;;11.60;99.90;;;;;;5090478;28;20043;-67
2022/10/18 05:31:47;;;;;;;61.13;10.77;;;11.60;99.90;;;;;;5076185;28;20390;-67
2022/10/18 05:34:13;;;;;;;57.72;10.48;;;11.60;99.90;;;;;;5094474;28;20467;-68
2022/10/18 05:36:39;;;;;;;45.22;10.45;;;11.60;99.90;;;;;;5093012;28;20079;-67
2022/10/18 05:39:05;;;;;;;45.15;11.38;;;11.50;99.90;;;;;;5092857;28;20044;-67
2022/10/18 05:41:31;;;;;;;42.55;10.77;;;11.40;99.90;;;;;;5092845;28;20080;-67
2022/10/18 05:43:56;;;;;;;30.13;9.75;;;11.40;99.90;;;;;;5075705;28;20510;-68
2022/10/18 05:46:22;;;;;;;19.08;9.88;;;11.30;99.90;;;;;;5093058;28;20376;-67
2022/10/18 05:48:51;;;;;;;35.92;10.98;;;11.30;99.90;;;;;;5092935;28;20043;-67
2022/10/18 05:51:19;;;;;;;15.95;9.25;;;11.30;99.90;;;;;;5093179;28;20039;-68
2022/10/18 05:53:45;;;;;;;22.55;10.18;;;11.30;99.90;;;;;;5075585;28;20048;-67
2022/10/18 05:56:11;;;;;;;32.20;10.20;;;11.30;99.90;;;;;;5092418;28;20048;-67
2022/10/18 05:58:37;;;;;;;56.65;10.25;;;11.30;99.90;;;;;;5075678;28;20044;-67
2022/10/18 06:01:04;;;;;;;37.88;10.15;;;11.20;99.90;;;;;;5092356;28;20044;-68
2022/10/18 06:03:30;;;;;;;48.13;9.75;;;11.20;99.90;;;;;;5092471;28;20133;-67
2022/10/18 06:06:03;;;;;;;26.50;9.13;;;11.20;99.90;;;;;;5075425;28;20085;-67
2022/10/18 06:08:29;;;;;;;11.40;8.73;;;11.20;99.90;;;;;;5092430;28;20400;-68
2022/10/18 06:10:55;;;;;;;43.00;9.73;;;11.20;99.90;;;;;;5093592;28;20028;-67
2022/10/18 06:13:21;;;;;;;32.08;8.77;;;11.20;99.90;;;;;;5092479;28;20036;-67
2022/10/18 06:15:46;;;;;;;28.85;8.82;;;11.20;99.90;;;;;;5092640;28;20055;-68
2022/10/18 06:18:12;;;;;;;44.00;8.93;;;11.20;99.90;;;;;;5092594;28;20127;-67
2022/10/18 06:20:38;;;;;;;41.50;8.93;;;11.20;99.90;;;;;;5075474;28;20036;-67
2022/10/18 06:23:03;;;;;;;31.80;8.32;;;11.20;99.90;;;;;;5092205;28;20054;-67
2022/10/18 06:25:29;;;;;;;26.90;7.90;;;11.20;99.90;;;;;;5092135;28;20032;-67
2022/10/18 06:27:54;;;;;;;44.13;8.90;;;11.10;99.90;;;;;;5091995;28;20380;-68
2022/10/18 06:30:20;;;;;;;15.65;7.57;;;11.10;99.90;;;;;;5092192;28;20040;-67
2022/10/18 06:32:45;;;;;;;25.55;7.75;;;11.10;99.90;;;;;;5092279;28;20032;-67
2022/10/18 06:35:11;;;;;;;40.25;8.75;;;11.10;99.90;;;;;;5091907;28;20047;-67
2022/10/18 06:37:37;;;;;;;37.45;7.93;;;11.10;99.90;;;;;;5092109;28;20071;-67
2022/10/18 06:40:04;;;;;;;39.80;8.18;;;11.10;99.90;;;;;;5091468;28;20052;-68
2022/10/18 06:42:30;;;;;;;12.05;6.88;;;11.10;99.90;;;;;;5073954;28;20501;-67
2022/10/18 06:44:56;;;;;;;21.92;7.53;;;11.00;99.90;;;;;;5091540;28;20052;-68
2022/10/18 06:47:22;;;;;;;29.02;7.22;;;11.00;99.90;;;;;;5091323;28;20043;-68
2022/10/18 06:49:47;;;;;;;15.85;6.70;;;11.00;99.90;;;;;;5092166;28;20040;-67
2022/10/18 06:52:16;;;;;;;40.63;8.13;;;11.00;99.90;;;;;;5074091;28;20040;-67
2022/10/18 06:54:41;;;;;;;107.30;11.00;;;11.00;99.90;;;;;;5091684;28;20078;-68
2022/10/18 06:57:08;;;;;;;152.63;10.68;;;11.00;99.90;;;;;;5092716;28;20076;-67
2022/10/18 06:59:33;;;;;;;34.92;8.07;;;11.00;99.90;;;;;;5091338;28;20048;-68
2022/10/18 07:01:59;;;;;;;33.33;8.05;;;11.00;99.90;;;;;;5091241;28;20044;-67
2022/10/18 07:04:28;;;;;;;58.45;8.13;;;11.10;99.90;;;;;;5091303;28;20051;-67
2022/10/18 07:06:54;;;;;;;46.58;8.00;;;11.10;99.90;;;;;;5091276;28;20044;-67
2022/10/18 07:09:19;;;;;;;168.63;9.25;;;11.10;99.90;;;;;;5091207;28;20047;-67
2022/10/18 07:11:45;;;;;;;69.35;7.47;;;11.10;99.90;;;;;;5091642;28;20040;-68
2022/10/18 07:14:11;;;;;;;107.13;7.32;;;11.10;99.90;;;;;;5090948;28;20073;-67
2022/10/18 07:16:36;;;;;;;114.95;8.10;;;11.00;99.90;;;;;;5074099;28;20047;-67
2022/10/18 07:19:02;;;;;;;102.35;7.05;;;11.00;99.90;;;;;;5091018;28;20051;-67
2022/10/18 07:21:28;;;;;;;66.85;7.22;;;11.00;99.90;;;;;;5091183;28;20044;-67
2022/10/18 07:23:55;;;;;;;106.50;8.38;;;11.00;99.90;;;;;;5091315;28;20478;-67
2022/10/18 07:26:24;;;;;;;49.72;6.65;;;11.00;99.90;;;;;;5073869;28;20089;-68
2022/10/18 07:28:56;;;;;;;42.40;6.30;;;11.00;99.90;;;;;;5091263;28;20036;-67
2022/10/18 07:31:23;;;;;;;45.80;6.55;;;11.10;99.90;;;;;;5090883;28;20403;-67
2022/10/18 07:33:48;;;;;;;33.85;6.00;;;11.00;99.90;;;;;;5091151;28;20044;-67
2022/10/18 07:36:14;;;;;;;29.38;6.25;;;11.00;99.90;;;;;;5090785;28;20047;-67
2022/10/18 07:38:41;;;;;;;59.20;6.53;;;11.00;99.90;;;;;;5090572;28;20032;-67
2022/10/18 07:41:07;;;;;;;57.58;6.60;;;11.00;99.90;;;;;;5090402;28;20084;-68
2022/10/18 07:43:34;;;;;;;44.10;6.97;;;11.00;99.90;;;;;;5073774;28;20520;-67
2022/10/18 07:46:01;;;;;;;40.80;6.93;;;11.00;99.90;;;;;;5073960;28;20501;-67
2022/10/18 07:48:27;;;;;;;62.47;7.22;;;11.10;99.90;;;;;;5073289;28;20032;-67
2022/10/18 07:50:53;;;;;;;47.85;7.68;;;11.10;99.90;;;;;;5073764;28;20127;-68
2022/10/18 07:53:19;;;;;;;33.78;7.43;;;11.10;99.90;;;;;;5073222;28;20063;-67
2022/10/18 07:55:45;;;;;;;17.45;6.85;;;11.20;99.90;;;;;;5073508;28;20540;-67
2022/10/18 07:58:11;;;;;;;48.05;7.78;;;11.30;99.90;;;;;;5073622;28;20067;-67
2022/10/18 08:00:37;;;;;;;59.17;8.52;;;11.40;99.90;;;;;;5073197;28;20043;-67
2022/10/18 08:03:03;;;;;;;30.88;7.55;;;11.40;99.90;;;;;;5073316;28;20051;-68
2022/10/18 08:05:29;;;;;;;48.83;8.70;;;11.50;99.90;;;;;;5073302;28;20044;-67
2022/10/18 08:07:54;;;;;;;49.83;9.30;;;11.60;99.90;;;;;;5073311;28;20036;-68
2022/10/18 08:10:21;;;;;;;91.00;10.85;;;11.60;99.90;;;;;;5056550;28;20055;-67
2022/10/18 08:12:47;;;;;;;73.13;10.00;;;11.70;99.90;;;;;;5072813;28;20035;-67
2022/10/18 08:15:12;;;;;;;79.57;10.70;;;11.70;99.90;;;;;;5073640;28;20052;-67
2022/10/18 08:17:38;;;;;;;32.30;10.35;;;11.80;99.90;;;;;;5055845;28;20051;-68
2022/10/18 08:20:05;;;;;;;111.25;12.35;;;11.80;99.90;;;;;;5073100;28;20486;-67
2022/10/18 08:22:30;;;;;;;29.70;10.57;;;11.80;99.90;;;;;;5072739;28;20122;-67
2022/10/18 08:24:56;;;;;;;89.03;12.82;;;11.90;99.90;;;;;;5073165;28;20557;-67
2022/10/18 08:27:24;;;;;;;123.50;12.18;;;11.90;99.90;;;;;;5055741;28;20068;-67
2022/10/18 08:29:49;;;;;;;71.38;12.38;;;11.80;99.90;;;;;;5073003;28;20152;-67
2022/10/18 08:32:15;;;;;;;51.38;12.13;;;11.90;99.90;;;;;;5073301;28;20151;-67
2022/10/18 08:34:41;;;;;;;87.93;13.23;;;11.90;99.90;;;;;;5072567;28;20068;-67
2022/10/18 08:37:06;;;;;;;33.40;12.32;;;12.00;99.90;;;;;;5072918;28;20386;-67
2022/10/18 08:39:32;;;;;;;36.92;12.48;;;12.00;99.90;;;;;;5072611;28;20048;-67
2022/10/18 08:42:10;;;;;;;30.58;12.05;;;11.90;99.90;;;;;;5055573;28;20095;-67
2022/10/18 08:44:46;;;;;;;22.67;11.43;;;12.00;99.90;;;;;;5072696;28;20123;-67
2022/10/18 08:47:21;;;;;;;41.42;13.10;;;12.10;99.90;;;;;;5056147;28;20048;-67
2022/10/18 08:49:51;;;;;;;61.05;14.30;;;12.00;99.90;;;;;;5055340;28;20055;-67
2022/10/18 08:52:37;;;;;;;24.85;11.63;;;12.10;99.90;;;;;;5055529;28;20135;-68
2022/10/18 08:55:21;;;;;;;22.67;11.90;;;12.10;99.90;;;;;;4972835;28;20559;-67
2022/10/18 08:57:47;;;;;;;17.05;11.75;;;12.10;99.90;;;;;;4972770;28;20452;-67
2022/10/18 09:00:15;;;;;;;21.98;12.00;;;12.30;99.90;;;;;;4956925;28;20416;-67
2022/10/18 09:03:07;;;;;;;16.33;11.43;;;12.50;99.90;;;;;;4972528;28;20109;-67
2022/10/18 09:05:49;;;;;;;20.25;11.52;;;12.70;99.90;;;;;;4972537;28;20058;-67
2022/10/18 09:08:34;;;;;;;12.55;9.75;;;12.90;99.90;;;;;;4972502;28;20046;-67
2022/10/18 09:11:37;;;;;;;15.20;9.85;;;13.20;99.90;;;;;;4972431;28;20108;-67
2022/10/18 09:14:35;;;;;;;13.23;9.80;;;13.50;99.90;;;;;;4972496;28;20521;-67
2022/10/18 09:17:18;;;;;;;12.57;9.57;;;13.80;99.90;;;;;;4972490;28;20034;-67
2022/10/18 09:20:08;;;;;;;12.75;9.27;;;14.10;99.90;;;;;;4956587;28;20520;-68
2022/10/18 09:22:42;;;;;;;10.32;7.65;;;14.40;99.90;;;;;;4956470;28;20467;-67
2022/10/18 09:25:21;;;;;;;12.45;8.27;;;14.60;99.90;;;;;;4972386;28;20050;-67
2022/10/18 09:28:07;;;;;;;10.60;7.22;;;15.00;99.90;;;;;;4972306;28;20046;-67
2022/10/18 09:30:42;;;;;;;9.27;6.97;;;15.20;99.90;;;;;;4972613;28;20482;-67
2022/10/18 09:33:28;;;;;;;11.27;6.40;;;15.40;99.90;;;;;;5061475;28;20044;-68
2022/10/18 09:36:19;;;;;;;12.30;7.10;;;15.70;99.90;;;;;;5071221;28;20478;-67
2022/10/18 09:38:48;;;;;;;8.35;5.15;;;16.00;99.90;;;;;;4972286;28;20053;-68
2022/10/18 09:41:36;;;;;;;11.68;5.95;;;15.90;99.90;;;;;;4972090;28;20065;-67
2022/10/18 09:44:24;;;;;;;7.75;5.05;;;16.00;99.90;;;;;;4972260;28;20046;-67
2022/10/18 09:47:12;;;;;;;7.93;4.88;;;16.40;99.90;;;;;;4914653;29;20106;-68
2022/10/18 09:49:43;;;;;;;12.07;5.30;;;16.70;99.90;;;;;;4914873;29;20186;-68
2022/10/18 09:52:18;;;;;;;10.18;5.03;;;17.10;99.90;;;;;;4914550;29;20048;-67
2022/10/18 09:54:59;;;;;;;10.50;5.03;;;17.30;99.90;;;;;;4946550;29;20040;-68
2022/10/18 09:57:38;;;;;;;10.88;4.50;;;17.50;99.90;;;;;;4946535;29;20055;-67
2022/10/18 10:00:12;;;;;;;9.68;2.50;;;17.70;99.90;;;;;;4914812;29;20075;-68
2022/10/18 10:02:38;;;;;;;10.00;2.60;;;17.60;99.90;;;;;;4946841;29;20056;-68
2022/10/18 10:05:08;;;;;;;9.65;3.22;;;17.50;99.90;;;;;;4946177;29;20062;-68
2022/10/18 10:07:41;;;;;;;9.73;2.70;;;17.70;99.90;;;;;;4914671;29;20051;-67
2022/10/18 10:10:18;;;;;;;7.95;2.42;;;17.90;99.90;;;;;;4914468;29;20067;-68
2022/10/18 10:12:44;;;;;;;7.97;2.40;;;18.20;99.90;;;;;;4946540;29;20039;-67
2022/10/18 10:15:22;;;;;;;9.93;3.22;;;18.20;99.90;;;;;;4935510;28;20053;-68
2022/10/18 10:18:03;;;;;;;12.07;2.63;;;18.20;99.90;;;;;;4994797;28;20046;-68
2022/10/18 10:20:55;;;;;;;10.38;2.30;;;18.50;99.90;;;;;;4995417;28;20046;-68
2022/10/18 10:23:34;;;;;;;6.32;1.63;;;18.60;99.90;;;;;;5015440;28;20050;-68
2022/10/18 10:26:03;;;;;;;8.82;1.80;;;18.70;99.90;;;;;;5075250;28;20051;-68
2022/10/18 10:28:33;;;;;;;8.05;2.00;;;18.80;99.90;;;;;;5093511;28;20098;-68
2022/10/18 10:31:31;;;;;;;11.07;1.90;;;19.00;99.90;;;;;;5075278;28;20047;-68
2022/10/18 10:34:18;;;;;;;8.20;1.58;;;18.90;99.90;;;;;;5075352;28;20122;-68
2022/10/18 10:36:49;;;;;;;5.53;1.27;;;18.90;99.90;;;;;;5075320;28;20114;-68
2022/10/18 10:39:17;;;;;;;10.98;1.85;;;18.80;99.90;;;;;;5074816;28;20085;-68
2022/10/18 10:41:49;;;;;;;8.98;1.65;;;18.60;99.90;;;;;;5075057;28;20525;-68
2022/10/18 10:44:19;;;;;;;6.73;1.50;;;18.50;99.90;;;;;;5075001;28;20051;-68
2022/10/18 10:46:47;;;;;;;6.32;1.60;;;18.70;99.90;;;;;;5074981;28;20090;-68
2022/10/18 10:49:26;;;;;;;8.43;2.05;;;18.90;99.90;;;;;;5074505;28;20039;-68
2022/10/18 10:51:59;;;;;;;7.75;1.80;;;18.70;99.90;;;;;;5075117;28;20474;-68
2022/10/18 10:54:27;;;;;;;7.75;1.40;;;18.80;99.90;;;;;;5074866;28;20031;-68
2022/10/18 10:57:01;;;;;;;7.57;1.55;;;18.80;99.90;;;;;;5057785;28;20039;-68
2022/10/18 10:59:37;;;;;;;7.82;1.48;;;18.90;99.90;;;;;;5074440;28;20062;-68
2022/10/18 11:02:18;;;;;;;8.10;1.30;;;19.00;99.90;;;;;;5074936;28;20363;-68
2022/10/18 11:04:54;;;;;;;9.85;1.35;;;19.40;99.90;;;;;;5074553;28;20036;-68
2022/10/18 11:07:43;;;;;;;12.48;1.48;;;19.20;99.90;;;;;;5074471;28;20040;-68
2022/10/18 11:10:17;;;;;;;8.40;1.48;;;19.30;99.90;;;;;;5074383;28;20039;-68
2022/10/18 11:13:06;;;;;;;5.40;1.63;;;19.40;99.90;;;;;;5074406;28;20032;-68
2022/10/18 11:15:37;;;;;;;9.13;1.48;;;19.10;99.90;;;;;;5074510;28;20478;-68
2022/10/18 11:18:13;;;;;;;15.60;1.60;;;19.00;99.90;;;;;;5074747;28;20513;-68
2022/10/18 11:20:44;;;;;;;11.23;1.67;;;19.10;99.90;;;;;;5074096;28;20059;-68
2022/10/18 11:23:13;;;;;;;11.13;1.73;;;19.20;99.90;;;;;;5074313;28;20126;-68
2022/10/18 11:26:00;;;;;;;7.78;1.15;;;19.40;99.90;;;;;;5074280;28;20085;-68
2022/10/18 11:28:50;;;;;;;9.82;1.73;;;19.10;99.90;;;;;;5073029;28;20082;-68
2022/10/18 11:31:27;;;;;;;6.47;1.40;;;19.20;99.90;;;;;;5073875;28;20047;-68
2022/10/18 11:34:13;;;;;;;6.57;1.50;;;19.20;99.90;;;;;;5074006;28;20122;-68
2022/10/18 11:37:06;;;;;;;5.20;1.00;;;18.90;99.90;;;;;;5072472;28;20135;-68
2022/10/18 11:40:02;;;;;;;8.50;1.15;;;18.90;99.90;;;;;;5091844;28;20073;-68
2022/10/18 11:42:37;;;;;;;7.13;1.42;;;18.60;99.90;;;;;;5073530;28;20525;-68
2022/10/18 11:45:38;;;;;;;11.15;1.65;;;18.50;99.90;;;;;;5074068;28;20498;-68
2022/10/18 11:48:22;;;;;;;11.02;1.63;;;18.30;99.90;;;;;;5073567;28;20181;-68
2022/10/18 11:50:57;;;;;;;9.13;1.40;;;18.20;99.90;;;;;;5073931;28;20390;-68
2022/10/18 11:53:34;;;;;;;7.05;1.50;;;17.90;99.90;;;;;;5073507;28;20036;-69
2022/10/18 11:56:09;;;;;;;6.25;1.42;;;17.60;99.90;;;;;;5051911;28;20603;-67
2022/10/18 11:59:13;;;;;;;5.93;1.20;;;17.40;99.90;;;;;;5056595;28;20040;-68
2022/10/18 12:01:53;;;;;;;7.93;1.20;;;17.30;99.90;;;;;;4973693;28;20051;-68
2022/10/18 12:04:26;;;;;;;8.20;1.20;;;17.10;99.90;;;;;;4973398;28;20042;-68
2022/10/18 12:06:55;;;;;;;6.70;0.90;;;17.00;99.90;;;;;;4973506;28;20046;-69
2022/10/18 12:09:37;;;;;;;8.32;1.05;;;16.80;99.90;;;;;;4973473;28;20077;-68
2022/10/18 12:12:12;;;;;;;8.07;1.65;;;16.70;99.90;;;;;;4973697;28;20093;-69
2022/10/18 12:14:47;;;;;;;7.65;1.20;;;16.60;99.90;;;;;;4973238;28;20046;-68
2022/10/18 12:17:36;;;;;;;7.35;1.50;;;16.50;99.90;;;;;;4973409;28;20089;-68
2022/10/18 12:20:12;;;;;;;6.85;1.05;;;16.50;99.90;;;;;;4973377;28;20054;-69
2022/10/18 12:22:43;;;;;;;5.57;1.17;;;16.50;99.90;;;;;;4973158;28;20046;-69
2022/10/18 12:25:12;;;;;;;5.53;1.25;;;16.50;99.90;;;;;;4973354;28;20108;-68
2022/10/18 12:28:04;;;;;;;5.45;1.38;;;16.50;99.90;;;;;;4956826;28;20050;-68
2022/10/18 12:30:35;;;;;;;9.93;1.08;;;16.50;99.90;;;;;;4973136;28;20050;-68
2022/10/18 12:33:09;;;;;;;7.00;0.95;;;16.50;99.90;;;;;;4973136;28;20096;-68
2022/10/18 12:35:49;;;;;;;6.82;1.13;;;16.90;99.90;;;;;;4972955;28;20042;-68
2022/10/18 12:38:24;;;;;;;7.97;1.23;;;17.20;99.90;;;;;;5014316;28;20063;-68
2022/10/18 12:40:52;;;;;;;9.13;1.55;;;17.10;99.90;;;;;;5072176;28;20047;-68
2022/10/18 12:43:32;;;;;;;5.63;1.00;;;16.80;99.90;;;;;;5072506;28;20102;-68
2022/10/18 12:46:00;;;;;;;4.70;1.00;;;16.80;99.90;;;;;;5089772;28;20063;-68
2022/10/18 12:48:41;;;;;;;8.55;1.70;;;16.60;99.90;;;;;;5089579;28;20035;-68
2022/10/18 12:51:14;;;;;;;8.63;1.50;;;16.50;99.90;;;;;;5089922;28;20502;-68
2022/10/18 12:53:41;;;;;;;8.55;1.80;;;16.50;99.90;;;;;;5089473;28;20123;-68
2022/10/18 12:56:29;;;;;;;8.80;1.38;;;16.40;99.90;;;;;;5089427;28;20085;-68
2022/10/18 12:59:16;;;;;;;6.60;0.95;;;16.30;99.90;;;;;;5089512;28;20048;-68